Latest Weather Observations for Ivanhoe Airport

IDN60801

Issued at 8:52 am EDT Tuesday 22 January 2019 (issued every 10 minutes, with the page automatically refreshed every 10 minutes)

About weather observations | Map of weather stations | Latest weather observations for NSW | Other Formats
Station Details ID: 049000 Name: IVANHOE AERODROME AWS Lat: -32.88 Lon: 144.31 Height: 100.0 m
Data from the previous 72 hours. | See also: Recent months at Ivanhoe Airport
Date/Time
EDT
Temp
°C
App
Temp
°C
Dew
Point
°C
Rel
Hum
%
Delta-T
°C
Wind Press
QNH
hPa
Press
MSL
hPa
Rain since
9am
mm
Dir  Spd
km/h
Gust
km/h
Spd
kts
Gust
kts
22/08:30am 33.3 32.5 13.9 31 11.9 E 11 15 6 8 1010.5 1009.9 0.0
22/08:00am 31.5 30.1 12.3 31 11.4 ESE 11 15 6 8 1010.4 1009.8 0.0
22/07:30am 29.4 27.2 9.5 29 11.2 SE 11 13 6 7 1010.2 1009.6 0.0
22/07:00am 27.9 25.7 7.7 28 10.9 SE 9 11 5 6 1010.0 1009.4 0.0
22/06:30am 27.7 24.9 7.0 27 11.0 SE 11 11 6 6 1009.9 1009.3 0.0
22/06:00am 27.8 24.9 6.6 26 11.3 SE 11 13 6 7 1009.8 1009.2 0.0
22/05:30am 27.9 25.3 6.1 25 11.5 SSE 9 11 5 6 1009.6 1009.0 0.0
22/05:00am 28.0 24.9 5.6 24 11.7 SSE 11 13 6 7 1009.5 1008.9 0.0
22/04:30am 28.3 25.6 5.8 24 11.8 S 9 13 5 7 1009.4 1008.8 0.0
22/04:00am 28.2 25.9 5.7 24 11.8 SSW 7 9 4 5 1009.6 1009.0 0.0
22/03:30am 28.7 26.1 6.1 24 11.9 SSW 9 11 5 6 1009.7 1009.1 0.0
22/03:00am 29.3 26.7 6.0 23 12.3 SSW 9 9 5 5 1009.8 1009.2 0.0
22/02:30am 30.1 27.5 6.1 22 12.8 S 9 13 5 7 1010.0 1009.4 0.0
22/02:00am 30.9 27.5 6.0 21 13.3 S 13 17 7 9 1010.2 1009.6 0.0
22/01:30am 30.8 27.8 6.0 21 13.2 SSW 11 15 6 8 1010.4 1009.8 0.0
22/01:00am 31.8 29.0 6.8 21 13.6 S 11 15 6 8 1010.5 1009.9 0.0
22/12:30am 32.9 30.1 7.0 20 14.2 S 11 17 6 9 1010.4 1009.8 0.0
22/12:00am 33.4 30.1 8.1 21 14.2 SSW 15 24 8 13 1010.5 1009.9 0.0
 
Date/Time
EDT
Temp
°C
App
Temp
°C
Dew
Point
°C
Rel
Hum
%
Delta-T
°C
Wind Press
QNH
hPa
Press
MSL
hPa
Rain since
9am
mm
Dir  Spd
km/h
Gust
km/h
Spd
kts
Gust
kts
21/11:30pm 33.3 31.0 7.3 20 14.4 SSW 9 13 5 7 1010.3 1009.7 0.0
21/11:00pm 34.2 31.3 8.0 20 14.7 S 13 15 7 8 1010.3 1009.7 0.0
21/10:30pm 35.1 32.6 8.0 19 15.3 S 11 15 6 8 1010.2 1009.6 0.0
21/10:00pm 35.2 32.7 8.1 19 15.3 SSW 11 13 6 7 1010.1 1009.5 0.0
21/09:30pm 35.4 33.5 7.5 18 15.6 SSW 7 9 4 5 1009.7 1009.1 0.0
21/09:00pm 37.3 35.2 8.2 17 16.6 SSE 9 13 5 7 1009.4 1008.8 0.0
21/08:30pm 38.2 36.0 8.0 16 17.3 SE 9 11 5 6 1009.0 1008.4 0.0
21/08:00pm 39.3 37.5 7.9 15 18.0 SE 7 15 4 8 1008.7 1008.1 0.0
21/07:30pm 39.6 37.1 8.1 15 18.1 ESE 11 19 6 10 1008.4 1007.7 0.0
21/07:00pm 39.8 37.7 8.3 15 18.2 SE 9 15 5 8 1008.2 1007.5 0.0
21/06:30pm 40.3 37.9 8.7 15 18.4 SSE 11 17 6 9 1008.1 1007.4 0.0
21/06:00pm 40.4 38.6 7.8 14 18.8 WNW 7 13 4 7 1008.0 1007.3 0.0
21/05:30pm 41.9 40.3 8.9 14 19.4 SSW 7 13 4 7 1008.3 1007.6 0.0
21/05:00pm 41.5 39.5 8.6 14 19.3 S 9 20 5 11 1008.6 1008.0 0.0
21/04:30pm 40.9 38.7 9.2 15 18.6 SSW 11 19 6 10 1008.9 1008.3 0.0
21/04:00pm 40.3 37.5 8.7 15 18.4 WSW 13 20 7 11 1009.3 1008.7 0.0
21/03:30pm 40.5 38.9 8.8 15 18.5 WSW 7 17 4 9 1009.5 1008.9 0.0
21/03:00pm 39.7 38.1 10.1 17 17.6 ESE 9 17 5 9 1010.0 1009.4 0.0
21/02:30pm 39.2 37.3 10.5 18 17.1 NNE 11 19 6 10 1010.3 1009.7 0.0
21/02:00pm 39.4 37.4 11.5 19 16.9 N 13 22 7 12 1010.7 1010.1 0.0
21/01:30pm 39.0 38.3 12.0 20 16.4 S 7 15 4 8 1011.2 1010.6 0.0
21/01:00pm 37.7 35.9 10.9 20 16.0 N 11 20 6 11 1011.8 1011.2 0.0
21/12:30pm 37.1 35.8 12.5 23 14.9 NNE 11 19 6 10 1012.3 1011.7 0.0
21/12:00pm 37.2 36.2 13.3 24 14.7 N 11 22 6 12 1012.6 1012.0 0.0
21/11:30am 35.7 34.1 13.8 27 13.5 N 15 20 8 11 1012.9 1012.3 0.0
21/11:00am 35.1 34.4 14.4 29 12.8 N 11 19 6 10 1012.9 1012.3 0.0
21/10:30am 34.7 33.5 15.1 31 12.3 N 15 22 8 12 1013.0 1012.4 0.0
21/10:00am 33.2 31.0 14.3 32 11.6 NNE 19 26 10 14 1013.2 1012.6 0.0
21/09:30am 32.4 29.8 13.1 31 11.6 NE 19 26 10 14 1013.4 1012.8 0.0
21/09:00am 30.3 27.8 9.8 28 11.6 NE 13 19 7 10 1013.4 1012.8 0.0
21/08:30am 28.3 25.0 4.6 22 12.2 NE 11 13 6 7 1013.2 1012.6 0.0
21/08:00am 25.9 22.9 1.9 21 11.6 NE 7 9 4 5 1013.2 1012.6 0.0
21/07:30am 23.1 19.7 2.0 25 10.0 ENE 9 9 5 5 1013.0 1012.4 0.0
21/07:00am 20.2 17.3 1.6 29 8.5 ENE 6 6 3 3 1013.0 1012.4 0.0
21/06:30am 20.0 17.8 1.0 28 8.6 ENE 2 7 1 4 1013.2 1012.6 0.0
21/06:00am 20.9 16.6 1.2 27 9.0 ENE 13 17 7 9 1013.0 1012.4 0.0
21/05:30am 21.9 18.0 1.0 25 9.6 SE 11 20 6 11 1012.7 1012.1 0.0
21/05:00am 23.0 19.1 1.4 24 10.1 SSW 11 13 6 7 1012.4 1011.8 0.0
21/04:30am 22.5 19.0 1.5 25 9.8 SSW 9 11 5 6 1012.8 1012.2 0.0
21/04:00am 23.0 19.5 1.4 24 10.1 SSW 9 9 5 5 1012.9 1012.3 0.0
21/03:30am 23.4 20.0 1.7 24 10.2 SW 9 9 5 5 1012.9 1012.3 0.0
21/03:00am 24.0 20.2 1.6 23 10.6 SW 11 13 6 7 1013.0 1012.4 0.0
21/02:30am 24.7 21.3 1.6 22 11.0 SW 9 11 5 6 1013.1 1012.5 0.0
21/02:00am 25.4 21.4 0.8 20 11.6 WSW 11 13 6 7 1013.3 1012.7 0.0
21/01:30am 25.8 21.9 1.2 20 11.7 W 11 11 6 6 1013.4 1012.8 0.0
21/01:00am 26.1 22.2 1.4 20 11.8 W 11 13 6 7 1013.4 1012.8 0.0
21/12:30am 26.1 22.2 1.4 20 11.8 W 11 13 6 7 1013.5 1012.9 0.0
21/12:00am 26.4 22.6 1.7 20 11.9 W 11 13 6 7 1013.7 1013.1 0.0
 
Date/Time
EDT
Temp
°C
App
Temp
°C
Dew
Point
°C
Rel
Hum
%
Delta-T
°C
Wind Press
QNH
hPa
Press
MSL
hPa
Rain since
9am
mm
Dir  Spd
km/h
Gust
km/h
Spd
kts
Gust
kts
20/11:30pm 26.8 23.0 2.0 20 12.0 W 11 13 6 7 1013.8 1013.2 0.0
20/11:00pm 26.8 23.0 2.0 20 12.0 W 11 11 6 6 1014.0 1013.4 0.0
20/10:30pm 27.0 23.5 1.4 19 12.3 WNW 9 13 5 7 1014.0 1013.4 0.0
20/10:00pm 27.4 23.5 1.0 18 12.6 WNW 11 13 6 7 1014.1 1013.5 0.0
20/09:30pm 28.2 24.6 0.9 17 13.1 WNW 9 9 5 5 1013.8 1013.2 0.0
20/09:00pm 28.9 26.6 0.6 16 13.6 N 2 6 1 3 1013.5 1012.9 0.0
20/08:30pm 31.1 28.1 0.5 14 14.9 NNW 6 7 3 4 1013.2 1012.6 0.0
20/08:00pm 32.1 28.4 0.2 13 15.6 N 9 17 5 9 1013.1 1012.5 0.0
20/07:30pm 33.1 29.4 -0.1 12 16.2 N 9 13 5 7 1013.0 1012.4 0.0
20/07:00pm 33.2 29.1 0.0 12 16.3 NNE 11 13 6 7 1013.1 1012.5 0.0
20/06:30pm 33.1 29.8 -0.1 12 16.2 ENE 7 13 4 7 1013.0 1012.4 0.0
20/06:00pm 32.9 28.0 -0.2 12 16.1 SE 15 20 8 11 1012.7 1012.1 0.0
20/05:30pm 32.0 27.0 1.2 14 15.3 SE 17 24 9 13 1013.2 1012.6 0.0
20/05:00pm 31.8 27.9 1.0 14 15.2 S 11 19 6 10 1014.0 1013.4 0.0
20/04:30pm 31.1 25.7 1.4 15 14.7 SSE 19 28 10 15 1014.3 1013.7 0.0
20/04:00pm 30.8 26.1 3.0 17 14.1 S 17 24 9 13 1014.7 1014.1 0.0
20/03:30pm 30.3 25.8 4.1 19 13.5 S 17 20 9 11 1015.3 1014.7 0.0
20/03:00pm 30.2 25.7 4.0 19 13.5 S 17 24 9 13 1015.7 1015.1 0.0
20/02:30pm 30.8 26.1 3.0 17 14.1 SW 17 26 9 14 1016.3 1015.7 0.0
20/02:00pm 30.6 26.4 3.6 18 13.8 SW 15 20 8 11 1016.6 1015.9 0.0
20/01:30pm 30.4 26.3 4.2 19 13.5 SSW 15 20 8 11 1016.2 1015.6 0.0
20/01:00pm 30.6 25.8 4.4 19 13.6 SSW 19 26 10 14 1016.6 1015.9 0.0
20/12:30pm 30.2 25.7 4.0 19 13.5 SSW 17 24 9 13 1017.1 1016.4 0.0
20/12:00pm 29.6 25.5 4.3 20 13.0 S 15 20 8 11 1017.2 1016.5 0.0
20/11:30am 29.2 24.7 4.0 20 12.9 S 17 24 9 13 1017.3 1016.7 0.0
20/11:00am 27.9 24.2 4.2 22 12.0 SSE 13 19 7 10 1017.7 1017.1 0.0
20/10:30am 26.6 22.8 3.8 23 11.4 S 13 20 7 11 1018.2 1017.6 0.0
20/10:00am 26.4 22.3 4.2 24 11.2 SSE 15 20 8 11 1018.2 1017.6 0.0
20/09:30am 25.3 21.1 3.9 25 10.7 SSE 15 19 8 10 1018.1 1017.5 0.0
20/09:00am 23.9 20.1 3.8 27 9.9 SSE 13 20 7 11 1018.2 1017.6 0.0
20/08:30am 23.0 18.7 3.5 28 9.5 SE 15 20 8 11 1017.9 1017.3 0.0
20/08:00am 22.2 17.0 3.3 29 9.1 SE 20 26 11 14 1017.8 1017.2 0.0
20/07:30am 21.8 17.1 3.0 29 9.0 SE 17 26 9 14 1017.7 1017.1 0.0
20/07:00am 21.3 16.9 2.6 29 8.8 SE 15 20 8 11 1017.1 1016.4 0.0
20/06:30am 21.0 16.9 2.3 29 8.8 S 13 17 7 9 1016.8 1016.1 0.0
20/06:00am 21.1 17.3 1.9 28 8.9 SSE 11 15 6 8 1016.5 1015.8 0.0
20/05:30am 22.0 17.4 1.6 26 9.5 SSE 15 22 8 12 1016.0 1015.4 0.0
20/05:00am 22.8 17.5 1.8 25 9.9 SSE 19 28 10 15 1015.7 1015.1 0.0
20/04:30am 23.0 18.0 1.4 24 10.1 S 17 24 9 13 1015.6 1015.0 0.0
20/04:00am 23.6 18.6 1.3 23 10.4 S 17 22 9 12 1015.6 1015.0 0.0
20/03:30am 24.1 19.7 0.4 21 11.0 S 13 19 7 10 1015.6 1015.0 0.0
20/03:00am 24.2 19.7 -0.2 20 11.2 S 13 19 7 10 1015.6 1015.0 0.0
20/02:30am 24.6 20.1 -0.5 19 11.5 SSW 13 17 7 9 1015.7 1015.1 0.0
20/02:00am 25.6 21.5 -0.5 18 12.0 S 11 15 6 8 1015.7 1015.1 0.0
20/01:30am 26.3 21.4 -0.7 17 12.4 S 15 20 8 11 1015.7 1015.1 0.0
20/01:00am 27.3 22.1 0.1 17 12.8 S 17 22 9 12 1015.8 1015.2 0.0
20/12:30am 28.0 23.2 -0.1 16 13.3 S 15 24 8 13 1015.9 1015.3 0.0
20/12:00am 28.6 23.4 0.3 16 13.5 S 17 22 9 12 1016.0 1015.4 0.0
 
Date/Time
EDT
Temp
°C
App
Temp
°C
Dew
Point
°C
Rel
Hum
%
Delta-T
°C
Wind Press
QNH
hPa
Press
MSL
hPa
Rain since
9am
mm
Dir  Spd
km/h
Gust
km/h
Spd
kts
Gust
kts
19/11:30pm 29.3 23.7 0.0 15 14.0 S 19 28 10 15 1015.9 1015.3 0.0
19/11:00pm 29.6 24.3 -0.7 14 14.3 S 17 22 9 12 1016.0 1015.4 0.0
19/10:30pm 30.3 24.9 -1.2 13 14.8 SSW 17 24 9 13 1015.8 1015.2 0.0
19/10:00pm 31.0 25.7 -0.6 13 15.1 S 17 22 9 12 1015.5 1014.9 0.0
19/09:30pm 31.7 26.5 -0.1 13 15.4 S 17 22 9 12 1015.4 1014.8 0.0
19/09:00pm 32.4 28.0 0.5 13 15.7 S 13 19 7 10 1015.1 1014.5 0.0
19/08:30pm 33.4 27.8 1.3 13 16.1 S 20 28 11 15 1014.7 1014.1 0.0
19/08:00pm 34.1 28.2 1.8 13 16.4 S 22 33 12 18 1014.4 1013.8 0.0
19/07:30pm 34.7 29.3 2.3 13 16.6 S 20 28 11 15 1014.2 1013.6 0.0
19/07:00pm 36.1 30.5 3.3 13 17.3 S 22 30 12 16 1014.2 1013.6 0.0
19/06:30pm 36.0 30.2 4.3 14 16.9 S 24 35 13 19 1014.0 1013.4 0.0
19/06:00pm 36.1 30.9 5.4 15 16.7 S 22 33 12 18 1013.8 1013.2 0.0
19/05:30pm 36.3 31.7 6.5 16 16.5 S 20 30 11 16 1014.1 1013.5 0.0
19/05:00pm 36.6 32.0 6.7 16 16.6 S 20 32 11 17 1014.3 1013.7 0.0
19/04:30pm 36.4 31.8 6.6 16 16.5 SSE 20 33 11 18 1014.6 1014.0 0.0
19/04:00pm 35.3 30.9 7.4 18 15.6 S 20 32 11 17 1015.0 1014.4 0.0
19/03:30pm 34.9 30.8 8.6 20 14.9 S 20 33 11 18 1015.1 1014.5 0.0
19/03:00pm 35.8 31.7 10.1 21 15.0 S 22 35 12 19 1015.3 1014.7 0.0
19/02:30pm 34.2 29.5 9.4 22 14.2 S 24 35 13 19 1015.6 1015.0 0.0
19/02:00pm 31.9 27.2 9.4 25 12.7 S 24 33 13 18 1016.2 1015.6 0.0
19/01:30pm 32.4 28.4 10.4 26 12.7 SSE 22 32 12 17 1016.8 1016.1 0.0
19/01:00pm 31.4 28.0 11.2 29 11.7 S 20 32 11 17 1017.3 1016.7 0.0
19/12:30pm 30.3 26.7 11.8 32 10.8 S 22 32 12 17 1017.6 1017.0 0.0
19/12:00pm 29.3 25.3 11.8 34 10.2 S 24 33 13 18 1017.7 1017.1 0.0
19/11:30am 27.9 24.2 12.7 39 8.9 S 24 37 13 20 1017.7 1017.1 0.0
19/11:00am 26.8 23.4 12.5 41 8.3 SSE 22 32 12 17 1017.8 1017.2 0.0
19/10:30am 26.4 23.2 13.2 44 7.8 S 22 32 12 17 1017.8 1017.2 0.0
19/10:00am 26.0 22.4 13.2 45 7.5 S 24 35 13 19 1017.6 1017.0 0.0
19/09:30am 25.1 21.5 13.0 47 7.1 S 24 37 13 20 1017.5 1016.9 0.0
19/09:00am 24.6 20.6 12.9 48 6.8 S 26 35 14 19 1017.1 1016.4 0.0

Other Formats:

Comma delimited format used in spreadsheet applications
http://www.bom.gov.au/fwo/IDN60801/IDN60801.95697.axf

JavaScript Object Notation format (JSON) in row-major order
http://www.bom.gov.au/fwo/IDN60801/IDN60801.95697.json